Time;durP1;ratioP1;P1;durP2;ratioP2;P2;SDS_P1;SDS_P2;PMS_P1;PMS_P2;Temp;Humidity;BMP_temperature;BMP_pressure;BME280_temperature;BME280_humidity;BME280_pressure;Samples;Min_cycle;Max_cycle;Signal;HPM_P1;HPM_P2
2021/08/03 00:01:51;;;;;;;8.73;5.13;;;16.80;70.10;;;;;;5073781;28;20939;-73
2021/08/03 00:04:20;;;;;;;5.53;5.13;;;16.80;70.20;;;;;;5074051;28;20522;-73
2021/08/03 00:06:51;;;;;;;7.13;5.50;;;16.80;70.30;;;;;;5073893;28;20508;-73
2021/08/03 00:09:19;;;;;;;5.93;5.43;;;16.80;70.30;;;;;;5073950;28;20429;-73
2021/08/03 00:11:46;;;;;;;5.63;5.13;;;16.80;70.50;;;;;;5073903;28;20441;-73
2021/08/03 00:14:14;;;;;;;6.67;6.07;;;16.70;70.60;;;;;;5073504;28;20991;-73
2021/08/03 00:16:42;;;;;;;7.53;5.80;;;16.80;70.80;;;;;;5073859;28;20857;-73
2021/08/03 00:19:11;;;;;;;5.93;5.43;;;16.70;70.80;;;;;;5073825;28;20444;-73
2021/08/03 00:21:39;;;;;;;7.40;5.20;;;16.70;70.80;;;;;;5073323;28;20440;-73
2021/08/03 00:24:06;;;;;;;6.13;5.63;;;16.70;70.50;;;;;;5073640;28;20473;-73
2021/08/03 00:26:33;;;;;;;5.20;4.80;;;16.70;70.50;;;;;;5072839;28;20448;-73
2021/08/03 00:29:00;;;;;;;6.83;5.37;;;16.60;70.60;;;;;;5073642;28;20449;-73
2021/08/03 00:31:28;;;;;;;5.80;5.30;;;16.60;70.70;;;;;;5073669;28;20459;-73
2021/08/03 00:33:56;;;;;;;5.47;5.07;;;16.60;70.90;;;;;;5073556;28;20559;-74
2021/08/03 00:36:26;;;;;;;6.60;4.93;;;16.60;71.30;;;;;;5073583;28;20448;-73
2021/08/03 00:38:55;;;;;;;5.10;4.70;;;16.60;71.50;;;;;;5073581;28;20433;-73
2021/08/03 00:41:26;;;;;;;6.20;5.60;;;16.60;71.70;;;;;;5073214;28;20916;-73
2021/08/03 00:43:53;;;;;;;8.00;5.90;;;16.60;72.00;;;;;;5073498;28;20491;-73
2021/08/03 00:46:19;;;;;;;5.83;5.30;;;16.60;72.30;;;;;;5073180;28;20934;-73
2021/08/03 00:48:46;;;;;;;6.10;5.60;;;16.50;72.40;;;;;;5073369;28;20476;-73
2021/08/03 00:51:13;;;;;;;5.17;4.77;;;16.50;72.80;;;;;;5073571;28;20445;-73
2021/08/03 00:53:42;;;;;;;5.30;4.80;;;16.50;72.90;;;;;;5073344;28;20476;-74
2021/08/03 00:56:11;;;;;;;5.37;4.87;;;16.60;73.40;;;;;;5073392;28;20441;-73
2021/08/03 00:58:39;;;;;;;6.40;5.90;;;16.50;73.40;;;;;;5073390;28;20494;-73
2021/08/03 01:01:05;;;;;;;7.20;5.60;;;16.50;73.60;;;;;;5073349;28;20474;-73
2021/08/03 01:03:32;;;;;;;6.10;5.57;;;16.50;73.80;;;;;;5073228;28;20460;-73
2021/08/03 01:06:05;;;;;;;6.67;5.90;;;16.40;73.80;;;;;;5073227;28;20445;-73
2021/08/03 01:08:41;;;;;;;6.40;5.80;;;16.50;74.10;;;;;;5073251;28;20469;-73
2021/08/03 01:11:14;;;;;;;5.83;5.33;;;16.40;74.00;;;;;;5073293;28;20482;-73
2021/08/03 01:13:51;;;;;;;9.20;5.10;;;16.40;74.30;;;;;;5073215;28;20468;-73
2021/08/03 01:16:25;;;;;;;8.17;5.43;;;16.40;74.30;;;;;;5073753;28;20424;-73
2021/08/03 01:18:59;;;;;;;5.77;5.30;;;16.40;74.50;;;;;;5073270;28;20428;-73
2021/08/03 01:21:45;;;;;;;6.00;5.50;;;16.40;74.80;;;;;;5073040;28;20429;-73
2021/08/03 01:24:31;;;;;;;6.30;5.60;;;16.40;75.00;;;;;;5073102;28;20465;-73
2021/08/03 01:27:29;;;;;;;6.53;5.93;;;16.40;75.30;;;;;;5073087;28;20821;-74
2021/08/03 01:29:59;;;;;;;5.40;4.87;;;16.40;75.60;;;;;;5072786;28;20432;-74
2021/08/03 01:32:28;;;;;;;8.20;5.87;;;16.40;76.00;;;;;;5072747;28;20444;-74
2021/08/03 01:34:57;;;;;;;9.77;5.73;;;16.40;76.20;;;;;;5072916;28;21000;-73
2021/08/03 01:37:25;;;;;;;6.13;5.60;;;16.50;76.60;;;;;;5074717;28;20964;-74
2021/08/03 01:39:55;;;;;;;5.73;5.20;;;16.50;76.60;;;;;;5076776;28;20485;-73
2021/08/03 01:42:23;;;;;;;5.77;5.27;;;16.50;76.70;;;;;;5076502;28;20519;-73
2021/08/03 01:44:51;;;;;;;8.60;6.43;;;16.50;76.90;;;;;;5076343;28;20982;-73
2021/08/03 01:47:23;;;;;;;6.83;6.20;;;16.50;77.20;;;;;;5076608;28;20468;-73
2021/08/03 01:49:52;;;;;;;7.60;6.90;;;16.50;77.50;;;;;;5076365;28;20955;-73
2021/08/03 01:52:19;;;;;;;9.13;7.50;;;16.60;77.80;;;;;;5076242;28;20950;-73
2021/08/03 01:54:48;;;;;;;7.50;6.90;;;16.60;77.80;;;;;;5076477;28;20483;-73
2021/08/03 01:57:16;;;;;;;9.67;7.73;;;16.50;77.30;;;;;;5076453;28;20459;-73
2021/08/03 01:59:45;;;;;;;10.73;7.70;;;16.50;77.80;;;;;;5076182;28;20441;-73
2021/08/03 02:02:12;;;;;;;8.07;7.37;;;16.60;78.60;;;;;;5076398;28;20467;-73
2021/08/03 02:04:42;;;;;;;7.87;7.17;;;16.60;79.10;;;;;;5076253;28;20468;-72
2021/08/03 02:07:09;;;;;;;10.30;7.90;;;16.60;79.50;;;;;;5077025;28;20435;-71
2021/08/03 02:09:37;;;;;;;8.40;7.70;;;16.60;79.70;;;;;;5076242;28;20447;-71
2021/08/03 02:12:04;;;;;;;9.87;8.90;;;16.70;80.20;;;;;;5076182;28;20448;-71
2021/08/03 02:14:31;;;;;;;10.43;8.90;;;16.70;80.60;;;;;;5076077;28;20469;-71
2021/08/03 02:16:59;;;;;;;11.50;9.47;;;16.70;80.90;;;;;;5076127;28;20445;-72
2021/08/03 02:19:25;;;;;;;9.50;8.60;;;16.70;81.30;;;;;;5076065;28;20437;-72
2021/08/03 02:21:54;;;;;;;10.30;9.20;;;16.70;81.60;;;;;;5076020;28;20555;-71
2021/08/03 02:24:20;;;;;;;10.00;8.77;;;16.70;82.00;;;;;;5075983;28;20824;-71
2021/08/03 02:26:47;;;;;;;10.60;9.60;;;16.70;82.20;;;;;;5075976;28;20448;-71
2021/08/03 02:29:14;;;;;;;9.80;8.87;;;16.80;82.50;;;;;;5075772;28;20480;-72
2021/08/03 02:31:45;;;;;;;11.27;9.37;;;16.80;82.60;;;;;;5075898;28;20441;-72
2021/08/03 02:34:26;;;;;;;11.70;9.50;;;16.80;82.50;;;;;;5075832;28;20473;-72
2021/08/03 02:36:59;;;;;;;8.93;8.03;;;16.80;82.80;;;;;;5075483;28;20792;-72
2021/08/03 02:39:27;;;;;;;10.53;9.53;;;16.80;82.80;;;;;;5075771;28;20785;-73
2021/08/03 02:41:55;;;;;;;10.40;9.37;;;16.80;83.00;;;;;;5075637;28;20864;-72
2021/08/03 02:44:23;;;;;;;10.20;9.10;;;16.80;83.30;;;;;;5075240;28;20457;-73
2021/08/03 02:46:54;;;;;;;10.70;9.70;;;16.90;83.40;;;;;;5075585;28;20476;-72
2021/08/03 02:49:28;;;;;;;10.70;9.70;;;16.80;83.20;;;;;;5074636;28;20465;-72
2021/08/03 02:51:57;;;;;;;10.47;9.37;;;16.80;83.10;;;;;;5075488;28;20434;-72
2021/08/03 02:54:30;;;;;;;11.83;9.90;;;16.90;83.60;;;;;;5075360;28;20461;-73
2021/08/03 02:56:58;;;;;;;13.23;9.70;;;16.80;83.60;;;;;;5075413;28;20448;-72
2021/08/03 02:59:27;;;;;;;9.33;8.17;;;16.90;83.90;;;;;;5075323;28;20472;-73
2021/08/03 03:01:57;;;;;;;10.13;9.10;;;16.90;83.90;;;;;;5075275;28;20476;-72
2021/08/03 03:04:30;;;;;;;11.10;10.13;;;16.90;83.80;;;;;;5075133;28;20468;-73
2021/08/03 03:07:03;;;;;;;11.50;10.27;;;16.90;83.80;;;;;;5075200;28;20432;-72
2021/08/03 03:09:32;;;;;;;10.97;9.97;;;17.00;84.00;;;;;;5075091;28;20464;-72
2021/08/03 03:11:59;;;;;;;10.77;9.70;;;16.90;84.10;;;;;;5075062;28;20455;-72
2021/08/03 03:14:28;;;;;;;10.40;9.50;;;17.00;84.30;;;;;;5075478;28;20464;-72
2021/08/03 03:16:58;;;;;;;10.40;8.97;;;16.90;84.40;;;;;;5075339;28;20471;-71
2021/08/03 03:19:26;;;;;;;9.97;9.00;;;16.90;84.30;;;;;;5074909;28;20444;-72
2021/08/03 03:21:54;;;;;;;8.87;8.17;;;16.90;84.30;;;;;;5074757;28;20464;-71
2021/08/03 03:24:25;;;;;;;10.90;9.90;;;17.00;84.50;;;;;;5074808;28;20471;-73
2021/08/03 03:26:53;;;;;;;10.93;9.77;;;17.00;84.70;;;;;;5074867;28;20498;-72
2021/08/03 03:29:21;;;;;;;10.27;8.70;;;17.00;84.50;;;;;;5074645;28;20476;-73
2021/08/03 03:31:49;;;;;;;11.60;10.07;;;17.00;84.80;;;;;;5074348;28;20445;-73
2021/08/03 03:34:18;;;;;;;10.40;8.40;;;16.90;84.80;;;;;;5074539;28;20460;-73
2021/08/03 03:36:47;;;;;;;9.93;9.03;;;17.00;85.10;;;;;;5074533;28;20456;-73
2021/08/03 03:39:16;;;;;;;11.20;9.70;;;16.90;84.90;;;;;;5074601;28;20463;-73
2021/08/03 03:41:49;;;;;;;10.90;9.93;;;17.00;85.20;;;;;;5074261;28;20855;-73
2021/08/03 03:44:16;;;;;;;9.67;8.67;;;17.00;85.50;;;;;;5074397;28;20475;-73
2021/08/03 03:46:47;;;;;;;10.90;8.80;;;17.00;85.40;;;;;;5074423;28;20455;-73
2021/08/03 03:49:19;;;;;;;10.30;9.30;;;17.00;85.00;;;;;;5074501;28;20531;-73
2021/08/03 03:51:45;;;;;;;10.27;9.37;;;17.00;85.20;;;;;;5074552;28;20490;-73
2021/08/03 03:54:17;;;;;;;11.10;9.53;;;17.00;85.20;;;;;;5074078;28;20472;-73
2021/08/03 03:56:50;;;;;;;14.73;9.97;;;17.00;85.20;;;;;;5074057;28;20946;-73
2021/08/03 03:59:20;;;;;;;11.80;10.23;;;17.00;85.60;;;;;;5074092;28;20538;-73
2021/08/03 04:01:49;;;;;;;12.87;10.67;;;17.00;85.70;;;;;;5073744;28;20931;-73
2021/08/03 04:04:18;;;;;;;10.87;9.87;;;17.00;85.70;;;;;;5074517;28;20465;-73
2021/08/03 04:06:45;;;;;;;12.60;11.33;;;17.00;85.40;;;;;;5073985;28;20451;-73
2021/08/03 04:09:19;;;;;;;10.93;9.47;;;17.00;85.70;;;;;;5073889;28;20483;-73
2021/08/03 04:11:49;;;;;;;10.20;9.10;;;17.00;85.50;;;;;;5073929;28;20448;-73
2021/08/03 04:14:19;;;;;;;9.93;8.93;;;17.00;85.50;;;;;;5073820;28;20472;-73
2021/08/03 04:16:46;;;;;;;11.10;9.93;;;17.00;85.70;;;;;;5073865;28;20523;-73
2021/08/03 04:19:13;;;;;;;10.30;8.60;;;17.00;85.80;;;;;;5073837;28;20558;-73
2021/08/03 04:21:39;;;;;;;9.33;8.43;;;17.00;85.70;;;;;;5073628;28;20465;-73
2021/08/03 04:24:06;;;;;;;9.23;8.33;;;17.00;85.70;;;;;;5073426;28;20974;-73
2021/08/03 04:26:33;;;;;;;10.30;8.57;;;17.00;85.70;;;;;;5073692;28;20441;-73
2021/08/03 04:29:01;;;;;;;9.70;8.53;;;17.00;85.70;;;;;;5073605;28;20488;-73
2021/08/03 04:31:28;;;;;;;9.90;9.00;;;17.00;85.70;;;;;;5073328;28;20935;-73
2021/08/03 04:33:54;;;;;;;8.50;7.77;;;17.10;86.00;;;;;;5073572;28;20475;-73
2021/08/03 04:36:21;;;;;;;11.93;8.33;;;17.10;86.20;;;;;;5073620;28;20447;-73
2021/08/03 04:38:48;;;;;;;9.37;8.57;;;17.10;86.30;;;;;;5073255;28;20957;-73
2021/08/03 04:41:15;;;;;;;10.80;7.70;;;17.10;86.20;;;;;;5073246;28;20815;-73
2021/08/03 04:43:42;;;;;;;10.90;8.57;;;17.10;86.50;;;;;;5073468;28;20471;-73
2021/08/03 04:46:10;;;;;;;10.07;7.33;;;17.10;86.40;;;;;;5073498;28;20494;-73
2021/08/03 04:48:37;;;;;;;11.83;8.03;;;17.10;86.30;;;;;;5073380;28;20483;-73
2021/08/03 04:51:04;;;;;;;10.77;8.27;;;17.10;86.40;;;;;;5073119;28;20448;-73
2021/08/03 04:53:31;;;;;;;8.70;7.20;;;17.10;86.40;;;;;;5073333;28;20456;-74
2021/08/03 04:55:57;;;;;;;9.93;7.77;;;17.20;86.80;;;;;;5073391;28;20467;-73
2021/08/03 04:58:24;;;;;;;7.30;6.70;;;17.20;86.70;;;;;;5073403;28;20440;-73
2021/08/03 05:00:52;;;;;;;8.33;7.53;;;17.20;86.50;;;;;;5073371;28;20440;-73
2021/08/03 05:03:20;;;;;;;7.63;6.97;;;17.20;86.50;;;;;;5073263;28;20448;-73
2021/08/03 05:05:47;;;;;;;7.20;6.40;;;17.30;86.40;;;;;;5073306;28;20444;-73
2021/08/03 05:08:14;;;;;;;8.27;7.23;;;17.30;86.40;;;;;;5073203;28;20448;-73
2021/08/03 05:10:41;;;;;;;7.90;7.10;;;17.30;86.50;;;;;;5073239;28;20453;-73
2021/08/03 05:13:07;;;;;;;8.77;7.50;;;17.30;86.50;;;;;;5076537;28;20437;-73
2021/08/03 05:15:34;;;;;;;9.80;7.17;;;17.30;86.70;;;;;;5077297;28;20441;-73
2021/08/03 05:18:01;;;;;;;7.70;7.07;;;17.40;86.80;;;;;;5076962;28;20935;-73
2021/08/03 05:20:29;;;;;;;7.17;6.57;;;17.40;86.80;;;;;;5077197;28;20436;-73
2021/08/03 05:22:55;;;;;;;7.57;6.90;;;17.40;86.80;;;;;;5076662;28;20958;-73
2021/08/03 05:25:22;;;;;;;7.87;7.07;;;17.40;86.60;;;;;;5077009;28;20472;-74
2021/08/03 05:27:49;;;;;;;8.63;7.60;;;17.40;86.50;;;;;;5077010;28;20468;-73
2021/08/03 05:30:15;;;;;;;8.30;7.60;;;17.50;86.50;;;;;;5076886;28;20484;-72
2021/08/03 05:32:42;;;;;;;10.90;8.80;;;17.50;86.40;;;;;;5076969;28;20440;-72
2021/08/03 05:35:10;;;;;;;8.60;7.90;;;17.50;86.40;;;;;;5076796;28;20460;-72
2021/08/03 05:37:38;;;;;;;9.00;8.10;;;17.60;86.70;;;;;;5076822;28;20444;-73
2021/08/03 05:40:09;;;;;;;10.07;9.17;;;17.60;86.70;;;;;;5076510;28;20918;-73
2021/08/03 05:42:35;;;;;;;9.00;8.10;;;17.60;86.70;;;;;;5076758;28;20520;-73
2021/08/03 05:45:02;;;;;;;9.00;8.07;;;17.60;86.60;;;;;;5076609;28;20464;-73
2021/08/03 05:47:30;;;;;;;8.43;6.90;;;17.70;86.50;;;;;;5076331;28;20934;-72
2021/08/03 05:49:57;;;;;;;7.43;6.80;;;17.70;86.20;;;;;;5076533;28;20480;-73
2021/08/03 05:52:23;;;;;;;9.13;8.20;;;17.70;86.00;;;;;;5076555;28;20448;-73
2021/08/03 05:54:52;;;;;;;9.53;8.73;;;17.80;86.00;;;;;;5076445;28;20837;-73
2021/08/03 05:57:18;;;;;;;9.60;8.67;;;17.80;85.80;;;;;;5076465;28;20448;-73
2021/08/03 05:59:45;;;;;;;9.77;8.87;;;17.80;85.30;;;;;;5076411;28;20470;-73
2021/08/03 06:02:12;;;;;;;11.23;9.90;;;17.80;85.40;;;;;;5076075;28;20445;-73
2021/08/03 06:04:38;;;;;;;13.50;10.40;;;17.80;85.40;;;;;;5075954;28;20841;-73
2021/08/03 06:07:07;;;;;;;10.20;9.40;;;17.80;85.30;;;;;;5076358;28;20449;-73
2021/08/03 06:09:37;;;;;;;11.23;10.13;;;17.80;85.00;;;;;;5076161;28;20836;-73
2021/08/03 06:12:06;;;;;;;11.70;10.70;;;17.80;84.90;;;;;;5076178;28;20451;-73
2021/08/03 06:14:36;;;;;;;10.90;9.80;;;17.80;84.90;;;;;;5076078;28;20547;-73
2021/08/03 06:17:05;;;;;;;9.47;8.60;;;17.90;84.90;;;;;;5075782;28;20452;-73
2021/08/03 06:19:40;;;;;;;10.77;9.67;;;17.90;85.10;;;;;;5076067;28;20437;-73
2021/08/03 06:22:08;;;;;;;9.63;8.83;;;17.90;85.00;;;;;;5075865;28;20491;-73
2021/08/03 06:24:37;;;;;;;10.20;9.30;;;18.00;84.90;;;;;;5074705;28;20477;-73
2021/08/03 06:27:07;;;;;;;11.10;10.03;;;18.00;84.60;;;;;;5076006;28;20445;-73
2021/08/03 06:29:36;;;;;;;12.20;10.80;;;18.10;84.80;;;;;;5075920;28;20480;-73
2021/08/03 06:32:03;;;;;;;9.50;8.60;;;18.10;84.60;;;;;;5075895;28;20456;-73
2021/08/03 06:34:31;;;;;;;11.90;10.70;;;18.10;84.60;;;;;;5075407;28;20849;-73
2021/08/03 06:36:57;;;;;;;11.20;10.30;;;18.10;84.50;;;;;;5075477;28;20934;-73
2021/08/03 06:39:24;;;;;;;11.27;10.13;;;18.10;84.80;;;;;;5075666;28;20437;-73
2021/08/03 06:41:57;;;;;;;11.30;10.30;;;18.10;84.90;;;;;;5075384;28;20954;-73
2021/08/03 06:44:31;;;;;;;12.33;11.03;;;18.20;86.00;;;;;;5075549;28;20468;-73
2021/08/03 06:47:00;;;;;;;10.70;9.80;;;18.30;84.90;;;;;;5075635;28;20778;-73
2021/08/03 06:49:32;;;;;;;10.50;9.20;;;18.30;84.50;;;;;;5075431;28;20508;-73
2021/08/03 06:51:59;;;;;;;11.77;10.67;;;18.40;84.30;;;;;;5075509;28;20440;-73
2021/08/03 06:54:29;;;;;;;11.67;9.93;;;18.50;84.10;;;;;;5075945;28;20473;-73
2021/08/03 06:57:03;;;;;;;11.27;10.17;;;18.50;83.50;;;;;;5075339;28;20476;-73
2021/08/03 06:59:34;;;;;;;10.80;9.90;;;18.60;83.00;;;;;;5075340;28;20844;-74
2021/08/03 07:02:06;;;;;;;9.90;9.10;;;18.60;82.60;;;;;;5075375;28;20426;-73
2021/08/03 07:04:41;;;;;;;10.00;8.97;;;18.70;82.60;;;;;;5075333;28;20465;-73
2021/08/03 07:07:10;;;;;;;11.77;10.73;;;18.80;82.30;;;;;;5075121;28;20451;-73
2021/08/03 07:09:41;;;;;;;12.47;9.33;;;18.80;81.80;;;;;;5075020;28;20534;-73
2021/08/03 07:12:09;;;;;;;10.97;9.70;;;18.90;81.70;;;;;;5075162;28;20425;-73
2021/08/03 07:14:38;;;;;;;11.50;9.80;;;19.00;81.50;;;;;;5074901;28;20464;-72
2021/08/03 07:17:06;;;;;;;12.23;10.93;;;19.00;81.40;;;;;;5075045;28;20813;-73
2021/08/03 07:19:33;;;;;;;10.60;9.70;;;19.00;81.30;;;;;;5074947;28;20441;-73
2021/08/03 07:22:00;;;;;;;10.83;9.83;;;19.00;81.60;;;;;;5074712;28;20453;-72
2021/08/03 07:24:28;;;;;;;9.53;8.77;;;19.10;81.60;;;;;;5075509;28;20469;-73
2021/08/03 07:26:55;;;;;;;10.10;8.93;;;19.10;81.20;;;;;;5074771;28;20457;-73
2021/08/03 07:29:21;;;;;;;8.63;7.80;;;19.10;81.10;;;;;;5074646;28;20476;-73
2021/08/03 07:31:50;;;;;;;10.53;8.40;;;19.20;81.00;;;;;;5074699;28;20440;-73
2021/08/03 07:34:16;;;;;;;10.23;9.23;;;19.20;80.70;;;;;;5073938;28;20974;-73
2021/08/03 07:36:43;;;;;;;8.80;8.10;;;19.20;80.30;;;;;;5074592;28;20523;-73
2021/08/03 07:39:10;;;;;;;8.20;7.30;;;19.20;79.90;;;;;;5074564;28;20452;-73
2021/08/03 07:41:38;;;;;;;9.23;8.37;;;19.20;79.80;;;;;;5074499;28;20452;-73
2021/08/03 07:44:06;;;;;;;8.43;7.63;;;19.20;79.50;;;;;;5074085;28;20464;-72
2021/08/03 07:46:34;;;;;;;9.90;9.00;;;19.20;79.70;;;;;;5074358;28;20862;-73
2021/08/03 07:49:04;;;;;;;11.63;10.63;;;19.10;79.40;;;;;;5074251;28;20444;-73
2021/08/03 07:51:31;;;;;;;11.70;9.17;;;19.10;79.50;;;;;;5073975;28;20441;-73
2021/08/03 07:53:58;;;;;;;9.73;8.73;;;19.10;79.70;;;;;;5074173;28;20460;-73
2021/08/03 07:56:25;;;;;;;8.03;7.33;;;19.10;79.40;;;;;;5073849;28;20934;-73
2021/08/03 07:58:51;;;;;;;11.03;9.60;;;19.10;79.70;;;;;;5073853;28;20826;-73
2021/08/03 08:01:18;;;;;;;9.57;8.77;;;19.20;79.90;;;;;;5074156;28;20463;-73
2021/08/03 08:03:46;;;;;;;9.07;8.27;;;19.20;80.00;;;;;;5074030;28;20457;-73
2021/08/03 08:06:15;;;;;;;9.10;8.30;;;19.30;79.80;;;;;;5074003;28;20521;-73
2021/08/03 08:08:42;;;;;;;9.20;8.40;;;19.50;79.60;;;;;;5073948;28;20441;-73
2021/08/03 08:11:09;;;;;;;9.57;8.63;;;19.60;79.00;;;;;;5073925;28;20481;-73
2021/08/03 08:13:35;;;;;;;9.63;8.90;;;19.80;78.60;;;;;;5073793;28;20471;-73
2021/08/03 08:16:02;;;;;;;8.90;8.20;;;19.90;78.20;;;;;;5073880;28;20436;-73
2021/08/03 08:18:29;;;;;;;7.60;7.00;;;20.10;78.10;;;;;;5073514;28;20451;-73
2021/08/03 08:20:55;;;;;;;8.90;8.10;;;20.20;77.10;;;;;;5073457;28;20840;-73
2021/08/03 08:23:24;;;;;;;8.70;7.80;;;20.40;76.30;;;;;;5073297;28;20468;-73
2021/08/03 08:25:51;;;;;;;7.13;6.43;;;20.60;75.80;;;;;;5073751;28;20472;-73
2021/08/03 08:28:17;;;;;;;9.73;8.60;;;20.80;74.60;;;;;;5073702;28;20452;-73
2021/08/03 08:30:44;;;;;;;8.80;7.90;;;21.10;73.80;;;;;;5073281;28;20994;-73
2021/08/03 08:33:11;;;;;;;7.00;6.00;;;21.30;72.80;;;;;;5073603;28;20454;-73
2021/08/03 08:35:39;;;;;;;8.37;7.13;;;21.50;71.60;;;;;;5073619;28;20441;-73
2021/08/03 08:38:06;;;;;;;6.83;6.23;;;21.70;70.80;;;;;;5073325;28;20447;-73
2021/08/03 08:40:34;;;;;;;5.37;4.87;;;22.00;69.70;;;;;;5073597;28;20864;-73
2021/08/03 08:43:01;;;;;;;6.33;5.10;;;22.20;68.40;;;;;;5073221;28;20938;-73
2021/08/03 08:45:30;;;;;;;6.70;5.57;;;22.40;67.50;;;;;;5073391;28;20461;-73
2021/08/03 08:47:57;;;;;;;4.77;4.37;;;22.60;65.90;;;;;;5072890;28;20482;-73
2021/08/03 08:50:25;;;;;;;5.20;3.80;;;22.90;64.60;;;;;;5073054;28;20986;-73
2021/08/03 08:52:54;;;;;;;4.50;3.80;;;23.30;63.50;;;;;;5073404;28;20502;-73
2021/08/03 08:55:22;;;;;;;4.87;4.17;;;23.80;62.40;;;;;;5073017;28;20464;-73
2021/08/03 08:57:51;;;;;;;4.50;4.13;;;24.20;60.00;;;;;;5073376;28;20815;-73
2021/08/03 09:00:19;;;;;;;5.57;4.10;;;24.70;58.70;;;;;;5073350;28;20785;-73
2021/08/03 09:02:47;;;;;;;8.40;6.27;;;25.10;57.50;;;;;;5073386;28;20445;-74
2021/08/03 09:05:16;;;;;;;4.70;4.27;;;25.30;55.10;;;;;;5073298;28;20539;-74
2021/08/03 09:07:49;;;;;;;5.87;5.23;;;25.30;54.20;;;;;;5073253;28;20441;-74
2021/08/03 09:10:34;;;;;;;7.50;4.70;;;25.40;53.70;;;;;;5073233;28;20473;-74
2021/08/03 09:13:05;;;;;;;4.70;4.30;;;25.40;53.80;;;;;;5073316;28;20432;-74
2021/08/03 09:15:33;;;;;;;5.73;5.20;;;25.60;53.80;;;;;;5073267;28;20474;-74
2021/08/03 09:18:10;;;;;;;4.60;4.20;;;25.80;53.30;;;;;;5072885;28;20973;-74
2021/08/03 09:20:38;;;;;;;6.90;4.17;;;26.00;51.80;;;;;;5073138;28;20439;-74
2021/08/03 09:23:05;;;;;;;3.83;3.53;;;26.20;50.40;;;;;;5072672;28;20463;-74
2021/08/03 09:25:32;;;;;;;4.50;4.10;;;26.50;50.40;;;;;;5073068;28;20453;-74
2021/08/03 09:28:04;;;;;;;6.23;5.63;;;26.80;50.30;;;;;;5072788;28;20949;-74
2021/08/03 09:30:32;;;;;;;4.30;3.63;;;26.90;48.20;;;;;;5073021;28;20468;-74
2021/08/03 09:32:59;;;;;;;4.60;4.30;;;26.90;48.10;;;;;;5073034;28;20447;-74
2021/08/03 09:35:27;;;;;;;4.80;4.03;;;27.00;49.00;;;;;;5072638;28;20460;-74
2021/08/03 09:37:56;;;;;;;3.93;3.37;;;27.10;49.00;;;;;;5072738;28;20447;-74
2021/08/03 09:40:25;;;;;;;4.77;4.17;;;27.20;49.00;;;;;;5072965;28;20517;-74
2021/08/03 09:43:05;;;;;;;4.13;3.83;;;27.30;48.80;;;;;;5072978;28;20445;-74
2021/08/03 09:45:33;;;;;;;6.07;5.40;;;27.30;47.00;;;;;;5072997;28;20435;-74
2021/08/03 09:48:14;;;;;;;6.03;5.63;;;27.10;45.10;;;;;;5072939;28;20480;-74
2021/08/03 09:51:02;;;;;;;6.90;6.20;;;26.80;46.60;;;;;;5072856;28;20503;-74
2021/08/03 09:53:46;;;;;;;5.67;5.27;;;26.70;46.80;;;;;;5073038;28;20476;-74
2021/08/03 09:56:15;;;;;;;5.73;5.23;;;26.40;46.80;;;;;;5073081;28;20475;-74
2021/08/03 09:59:01;;;;;;;5.03;4.57;;;26.10;48.00;;;;;;5075236;28;20437;-74
2021/08/03 10:01:30;;;;;;;3.70;3.40;;;26.00;49.50;;;;;;5076507;28;20424;-74
2021/08/03 10:03:58;;;;;;;5.53;5.00;;;25.90;50.20;;;;;;5076353;28;20460;-74
2021/08/03 10:06:25;;;;;;;4.47;4.17;;;25.80;51.20;;;;;;5076375;28;20440;-74
2021/08/03 10:08:53;;;;;;;5.33;4.60;;;25.60;51.70;;;;;;5076312;28;20514;-74
2021/08/03 10:11:21;;;;;;;12.13;5.70;;;25.50;52.20;;;;;;5076201;28;20483;-74
2021/08/03 10:13:48;;;;;;;5.40;5.00;;;25.30;52.10;;;;;;5076175;28;20467;-74
2021/08/03 10:16:17;;;;;;;4.50;3.67;;;25.10;52.60;;;;;;5075895;28;20927;-74
2021/08/03 10:18:47;;;;;;;4.13;3.83;;;24.90;53.20;;;;;;5076145;28;20448;-74
2021/08/03 10:21:28;;;;;;;5.07;4.03;;;24.60;52.70;;;;;;5076093;28;20438;-74
2021/08/03 10:23:57;;;;;;;4.00;3.10;;;24.40;53.80;;;;;;5076610;28;20559;-74
2021/08/03 10:26:25;;;;;;;5.30;4.33;;;24.20;55.00;;;;;;5075966;28;20447;-74
2021/08/03 10:29:23;;;;;;;4.40;4.00;;;24.00;55.40;;;;;;5075740;28;20938;-74
2021/08/03 10:31:52;;;;;;;4.43;4.10;;;23.80;55.80;;;;;;5075842;28;20479;-74
2021/08/03 10:34:52;;;;;;;9.70;6.20;;;23.60;56.30;;;;;;5075795;28;20488;-73
2021/08/03 10:37:23;;;;;;;4.97;4.47;;;23.40;56.90;;;;;;5075605;28;20927;-74
2021/08/03 10:39:51;;;;;;;4.30;3.90;;;23.20;57.30;;;;;;5075771;28;20433;-74
2021/08/03 10:42:18;;;;;;;5.00;4.60;;;23.00;57.60;;;;;;5075752;28;20445;-73
2021/08/03 10:44:47;;;;;;;5.03;4.43;;;22.90;58.20;;;;;;5075346;28;20460;-73
2021/08/03 10:47:48;;;;;;;6.40;5.80;;;22.80;58.60;;;;;;5075651;28;20453;-73
2021/08/03 10:50:32;;;;;;;5.30;4.90;;;22.60;59.30;;;;;;5075545;28;20465;-73
2021/08/03 10:53:02;;;;;;;8.00;6.20;;;22.60;60.30;;;;;;5073336;28;20867;-73
2021/08/03 10:55:35;;;;;;;6.03;5.50;;;22.50;60.70;;;;;;5075517;28;20468;-72
2021/08/03 10:58:25;;;;;;;10.10;6.57;;;22.50;61.90;;;;;;5075516;28;20816;-72
2021/08/03 11:00:53;;;;;;;6.97;4.43;;;22.50;62.90;;;;;;5075089;28;20524;-72
2021/08/03 11:03:46;;;;;;;6.77;4.73;;;22.50;64.00;;;;;;5075355;28;20445;-72
2021/08/03 11:06:34;;;;;;;4.83;4.23;;;22.50;64.20;;;;;;5075272;28;20445;-74
2021/08/03 11:09:01;;;;;;;5.03;4.63;;;22.60;64.10;;;;;;5074641;28;20445;-74
2021/08/03 11:11:29;;;;;;;6.20;4.63;;;22.60;64.90;;;;;;5075026;28;20476;-73
2021/08/03 11:13:58;;;;;;;4.27;3.97;;;22.70;63.70;;;;;;5075071;28;20831;-72
2021/08/03 11:16:56;;;;;;;4.60;4.10;;;22.70;63.70;;;;;;5075121;28;20448;-72
2021/08/03 11:19:35;;;;;;;5.87;5.30;;;22.80;63.70;;;;;;5075094;28;20519;-74
2021/08/03 11:22:04;;;;;;;28.70;12.07;;;22.90;63.20;;;;;;5074693;28;20452;-72
2021/08/03 11:24:35;;;;;;;10.73;5.83;;;23.00;63.20;;;;;;5074761;28;20456;-74
2021/08/03 11:27:02;;;;;;;7.77;5.40;;;23.20;63.20;;;;;;5074566;28;20445;-73
2021/08/03 11:29:35;;;;;;;6.10;5.20;;;23.40;62.40;;;;;;5074774;28;20448;-73
2021/08/03 11:32:04;;;;;;;5.23;4.73;;;23.50;61.50;;;;;;5074670;28;20460;-74
2021/08/03 11:34:34;;;;;;;5.23;4.73;;;23.60;61.00;;;;;;5074693;28;20464;-74
2021/08/03 11:37:13;;;;;;;5.07;4.57;;;23.80;61.00;;;;;;5074637;28;20440;-74
2021/08/03 11:39:44;;;;;;;5.27;4.83;;;23.90;60.10;;;;;;5074592;28;20429;-74
2021/08/03 11:42:12;;;;;;;3.47;3.17;;;24.00;59.70;;;;;;5074583;28;20433;-74
2021/08/03 11:44:40;;;;;;;4.50;4.10;;;24.20;59.30;;;;;;5074071;28;20989;-74
2021/08/03 11:47:10;;;;;;;3.83;3.33;;;24.40;58.90;;;;;;5074496;28;20455;-74
2021/08/03 11:49:42;;;;;;;6.73;3.67;;;24.60;58.00;;;;;;5074430;28;20432;-74
2021/08/03 11:52:13;;;;;;;4.27;3.97;;;24.90;57.40;;;;;;5074315;28;20468;-75
2021/08/03 11:54:41;;;;;;;2.87;2.67;;;25.40;56.90;;;;;;5074189;28;20469;-74
2021/08/03 11:57:38;;;;;;;2.93;2.70;;;25.90;55.40;;;;;;5074214;28;20437;-74
2021/08/03 12:00:18;;;;;;;3.00;2.77;;;26.70;53.30;;;;;;5039608;28;20453;-73
2021/08/03 12:02:48;;;;;;;2.40;2.20;;;27.40;51.20;;;;;;5074143;28;20421;-73
2021/08/03 12:05:21;;;;;;;2.63;2.43;;;28.40;49.60;;;;;;5074397;28;20813;-74
2021/08/03 12:07:54;;;;;;;2.90;2.60;;;29.20;47.70;;;;;;5074052;28;20436;-74
2021/08/03 12:10:23;;;;;;;3.80;2.70;;;29.80;45.50;;;;;;5074484;28;20444;-73
2021/08/03 12:12:51;;;;;;;3.90;2.40;;;30.30;43.90;;;;;;5073929;28;20478;-74
2021/08/03 12:15:19;;;;;;;2.33;2.20;;;30.70;42.70;;;;;;5073605;28;20511;-73
2021/08/03 12:17:47;;;;;;;2.37;2.17;;;31.00;42.50;;;;;;5073928;28;20441;-73
2021/08/03 12:20:26;;;;;;;2.80;2.60;;;31.10;41.90;;;;;;5073527;28;20934;-73
2021/08/03 12:22:54;;;;;;;3.37;3.17;;;31.20;41.50;;;;;;5072811;28;20831;-74
2021/08/03 12:25:21;;;;;;;2.90;2.50;;;31.30;41.20;;;;;;5073791;28;20460;-73
2021/08/03 12:27:48;;;;;;;3.10;2.43;;;31.70;40.70;;;;;;5073807;28;20440;-75
2021/08/03 12:30:36;;;;;;;2.83;2.63;;;32.10;39.50;;;;;;5073766;28;20561;-75
2021/08/03 12:33:05;;;;;;;2.77;2.53;;;32.70;38.30;;;;;;5073385;28;20941;-73
2021/08/03 12:35:34;;;;;;;5.37;2.97;;;33.10;37.30;;;;;;5073281;28;20468;-73
2021/08/03 12:38:17;;;;;;;2.87;2.63;;;33.50;36.30;;;;;;5073671;28;20471;-73
2021/08/03 12:40:44;;;;;;;3.23;2.57;;;34.00;35.40;;;;;;5074406;28;20829;-74
2021/08/03 12:43:11;;;;;;;3.07;2.47;;;34.40;34.90;;;;;;5073497;28;20444;-75
2021/08/03 12:45:40;;;;;;;4.43;2.70;;;34.50;34.30;;;;;;5073594;28;20454;-75
2021/08/03 12:48:09;;;;;;;2.63;2.43;;;34.70;33.70;;;;;;5073277;28;20448;-75
2021/08/03 12:50:53;;;;;;;2.17;1.97;;;34.50;33.90;;;;;;5073206;28;20451;-75
2021/08/03 12:53:24;;;;;;;4.50;2.87;;;34.20;34.00;;;;;;5073207;28;20913;-75
2021/08/03 12:55:53;;;;;;;2.77;2.57;;;33.70;34.50;;;;;;5073447;28;20447;-75
2021/08/03 12:58:34;;;;;;;2.70;2.50;;;33.10;35.30;;;;;;5073467;28;20455;-75